sensor_id;sensor_type;location;lat;lon;timestamp;pressure;altitude;pressure_sealevel;temperature;humidity
35655;BME280;21773;50.010;19.972;2023-04-05T00:00:22;99297.13;;;5.13;37.77
35655;BME280;21773;50.010;19.972;2023-04-05T00:03:25;99294.34;;;5.07;38.09
35655;BME280;21773;50.010;19.972;2023-04-05T00:06:30;99273.75;;;4.93;38.28
35655;BME280;21773;50.010;19.972;2023-04-05T00:09:35;99290.19;;;5.04;38.19
35655;BME280;21773;50.010;19.972;2023-04-05T00:12:38;99285.88;;;5.03;38.17
35655;BME280;21773;50.010;19.972;2023-04-05T00:15:41;99281.69;;;5.01;38.35
35655;BME280;21773;50.010;19.972;2023-04-05T00:18:46;99281.84;;;4.99;38.58
35655;BME280;21773;50.010;19.972;2023-04-05T00:21:52;99269.34;;;5.00;38.89
35655;BME280;21773;50.010;19.972;2023-04-05T00:24:57;99264.19;;;4.98;38.63
35655;BME280;21773;50.010;19.972;2023-04-05T00:28:01;99270.88;;;4.94;38.65
35655;BME280;21773;50.010;19.972;2023-04-05T00:31:04;99259.28;;;4.79;38.95
35655;BME280;21773;50.010;19.972;2023-04-05T00:34:08;99269.16;;;4.78;38.94
35655;BME280;21773;50.010;19.972;2023-04-05T00:37:13;99265.50;;;4.71;39.30
35655;BME280;21773;50.010;19.972;2023-04-05T00:40:18;99261.34;;;4.69;39.42
35655;BME280;21773;50.010;19.972;2023-04-05T00:43:21;99250.84;;;4.67;39.16
35655;BME280;21773;50.010;19.972;2023-04-05T00:46:25;99268.88;;;4.65;39.55
35655;BME280;21773;50.010;19.972;2023-04-05T00:49:31;99260.38;;;4.62;39.77
35655;BME280;21773;50.010;19.972;2023-04-05T00:52:35;99258.22;;;4.57;39.72
35655;BME280;21773;50.010;19.972;2023-04-05T00:55:40;99254.25;;;4.53;40.01
35655;BME280;21773;50.010;19.972;2023-04-05T00:58:43;99252.28;;;4.47;40.48
35655;BME280;21773;50.010;19.972;2023-04-05T01:01:55;99254.16;;;4.39;40.67
35655;BME280;21773;50.010;19.972;2023-04-05T01:05:05;99255.53;;;4.26;41.17
35655;BME280;21773;50.010;19.972;2023-04-05T01:08:15;99228.41;;;4.07;41.15
35655;BME280;21773;50.010;19.972;2023-04-05T01:11:22;99252.41;;;4.15;41.68
35655;BME280;21773;50.010;19.972;2023-04-05T01:14:27;99253.91;;;4.09;41.54
35655;BME280;21773;50.010;19.972;2023-04-05T01:17:31;99248.91;;;4.06;41.77
35655;BME280;21773;50.010;19.972;2023-04-05T01:20:42;99247.06;;;4.07;41.91
35655;BME280;21773;50.010;19.972;2023-04-05T01:23:56;99252.94;;;4.10;41.70
35655;BME280;21773;50.010;19.972;2023-04-05T01:27:07;99254.09;;;4.08;41.64
35655;BME280;21773;50.010;19.972;2023-04-05T01:30:17;99252.09;;;4.10;41.89
35655;BME280;21773;50.010;19.972;2023-04-05T01:33:27;99241.41;;;4.02;42.17
35655;BME280;21773;50.010;19.972;2023-04-05T01:36:38;99248.59;;;4.01;42.19
35655;BME280;21773;50.010;19.972;2023-04-05T01:39:42;99247.78;;;4.01;42.06
35655;BME280;21773;50.010;19.972;2023-04-05T01:42:48;99245.28;;;3.99;42.22
35655;BME280;21773;50.010;19.972;2023-04-05T01:45:53;99256.13;;;3.98;41.88
35655;BME280;21773;50.010;19.972;2023-04-05T01:48:56;99248.28;;;3.96;41.85
35655;BME280;21773;50.010;19.972;2023-04-05T01:51:59;99239.97;;;3.83;41.98
35655;BME280;21773;50.010;19.972;2023-04-05T01:55:03;99245.63;;;3.88;41.92
35655;BME280;21773;50.010;19.972;2023-04-05T01:58:07;99242.28;;;3.94;42.33
35655;BME280;21773;50.010;19.972;2023-04-05T02:01:13;99238.44;;;3.97;41.88
35655;BME280;21773;50.010;19.972;2023-04-05T02:04:16;99239.28;;;3.97;41.73
35655;BME280;21773;50.010;19.972;2023-04-05T02:07:19;99227.97;;;3.95;41.86
35655;BME280;21773;50.010;19.972;2023-04-05T02:10:23;99238.63;;;3.95;41.62
35655;BME280;21773;50.010;19.972;2023-04-05T02:13:28;99232.78;;;3.91;41.86
35655;BME280;21773;50.010;19.972;2023-04-05T02:16:33;99237.31;;;3.83;42.02
35655;BME280;21773;50.010;19.972;2023-04-05T02:19:36;99236.47;;;3.82;41.96
35655;BME280;21773;50.010;19.972;2023-04-05T02:22:42;99234.16;;;3.79;42.02
35655;BME280;21773;50.010;19.972;2023-04-05T02:25:46;99236.66;;;3.81;42.06
35655;BME280;21773;50.010;19.972;2023-04-05T02:28:50;99231.97;;;3.83;41.87
35655;BME280;21773;50.010;19.972;2023-04-05T02:31:56;99222.66;;;3.79;41.90
35655;BME280;21773;50.010;19.972;2023-04-05T02:35:00;99226.81;;;3.81;41.52
35655;BME280;21773;50.010;19.972;2023-04-05T02:38:04;99222.31;;;3.82;41.42
35655;BME280;21773;50.010;19.972;2023-04-05T02:41:08;99228.16;;;3.85;41.60
35655;BME280;21773;50.010;19.972;2023-04-05T02:44:12;99224.47;;;3.86;41.31
35655;BME280;21773;50.010;19.972;2023-04-05T02:47:17;99222.97;;;3.84;41.46
35655;BME280;21773;50.010;19.972;2023-04-05T02:50:28;99222.13;;;3.83;41.42
35655;BME280;21773;50.010;19.972;2023-04-05T02:53:31;99225.47;;;3.85;41.28
35655;BME280;21773;50.010;19.972;2023-04-05T02:56:39;99213.31;;;3.83;41.28
35655;BME280;21773;50.010;19.972;2023-04-05T02:59:47;99221.66;;;3.80;41.74
35655;BME280;21773;50.010;19.972;2023-04-05T03:02:52;99223.81;;;3.76;41.72
35655;BME280;21773;50.010;19.972;2023-04-05T03:06:00;99213.81;;;3.78;41.63
35655;BME280;21773;50.010;19.972;2023-04-05T03:09:17;99221.97;;;3.77;41.69
35655;BME280;21773;50.010;19.972;2023-04-05T03:12:25;99217.84;;;3.74;41.80
35655;BME280;21773;50.010;19.972;2023-04-05T03:15:31;99219.19;;;3.62;41.81
35655;BME280;21773;50.010;19.972;2023-04-05T03:18:41;99219.50;;;3.67;41.65
35655;BME280;21773;50.010;19.972;2023-04-05T03:21:45;99221.53;;;3.65;41.68
35655;BME280;21773;50.010;19.972;2023-04-05T03:25:09;99221.66;;;3.72;41.58
35655;BME280;21773;50.010;19.972;2023-04-05T03:28:18;99220.03;;;3.71;41.66
35655;BME280;21773;50.010;19.972;2023-04-05T03:31:26;99214.16;;;3.67;41.69
35655;BME280;21773;50.010;19.972;2023-04-05T03:34:36;99217.34;;;3.71;41.47
35655;BME280;21773;50.010;19.972;2023-04-05T03:37:41;99218.19;;;3.71;41.66
35655;BME280;21773;50.010;19.972;2023-04-05T03:40:46;99211.81;;;3.72;41.38
35655;BME280;21773;50.010;19.972;2023-04-05T03:43:49;99224.31;;;3.72;41.54
35655;BME280;21773;50.010;19.972;2023-04-05T03:46:56;99214.69;;;3.71;41.80
35655;BME280;21773;50.010;19.972;2023-04-05T03:50:02;99217.34;;;3.71;41.46
35655;BME280;21773;50.010;19.972;2023-04-05T03:53:05;99203.38;;;3.61;41.33
35655;BME280;21773;50.010;19.972;2023-04-05T03:56:10;99218.03;;;3.65;41.20
35655;BME280;21773;50.010;19.972;2023-04-05T03:59:19;99221.84;;;3.62;41.63
35655;BME280;21773;50.010;19.972;2023-04-05T04:02:23;99217.53;;;3.61;41.79
35655;BME280;21773;50.010;19.972;2023-04-05T04:05:28;99212.38;;;3.60;41.89
35655;BME280;21773;50.010;19.972;2023-04-05T04:08:32;99209.38;;;3.55;42.17
35655;BME280;21773;50.010;19.972;2023-04-05T04:11:36;99214.53;;;3.56;41.58
35655;BME280;21773;50.010;19.972;2023-04-05T04:14:40;99209.22;;;3.56;42.16
35655;BME280;21773;50.010;19.972;2023-04-05T04:18:03;99218.03;;;3.57;41.70
35655;BME280;21773;50.010;19.972;2023-04-05T04:21:19;99224.84;;;3.59;41.88
35655;BME280;21773;50.010;19.972;2023-04-05T04:24:44;99224.69;;;3.61;41.87
35655;BME280;21773;50.010;19.972;2023-04-05T04:28:09;99223.34;;;3.65;41.94
35655;BME280;21773;50.010;19.972;2023-04-05T04:31:24;99224.69;;;3.69;41.60
35655;BME280;21773;50.010;19.972;2023-04-05T04:34:28;99220.34;;;3.76;41.52
35655;BME280;21773;50.010;19.972;2023-04-05T05:11:43;99221.00;;;4.64;40.67
35655;BME280;21773;50.010;19.972;2023-04-05T05:18:18;99230.16;;;4.92;40.11
35655;BME280;21773;50.010;19.972;2023-04-05T05:21:22;99230.31;;;5.13;39.97
35655;BME280;21773;50.010;19.972;2023-04-05T05:24:30;99230.97;;;5.38;39.20
35655;BME280;21773;50.010;19.972;2023-04-05T05:27:35;99227.03;;;5.49;38.71
35655;BME280;21773;50.010;19.972;2023-04-05T05:30:38;99218.22;;;5.78;38.16
35655;BME280;21773;50.010;19.972;2023-04-05T05:33:42;99229.72;;;6.01;37.96
35655;BME280;21773;50.010;19.972;2023-04-05T05:36:46;99233.41;;;6.15;38.03
35655;BME280;21773;50.010;19.972;2023-04-05T05:39:50;99224.09;;;6.11;37.58
35655;BME280;21773;50.010;19.972;2023-04-05T05:42:54;99235.69;;;6.32;37.40
35655;BME280;21773;50.010;19.972;2023-04-05T05:45:59;99229.16;;;6.35;37.63
35655;BME280;21773;50.010;19.972;2023-04-05T05:49:03;99230.50;;;6.45;37.37
35655;BME280;21773;50.010;19.972;2023-04-05T05:52:07;99233.28;;;6.52;37.24
35655;BME280;21773;50.010;19.972;2023-04-05T05:55:10;99238.53;;;6.60;37.30
35655;BME280;21773;50.010;19.972;2023-04-05T05:58:14;99238.59;;;6.67;36.92
35655;BME280;21773;50.010;19.972;2023-04-05T06:01:19;99230.72;;;6.80;36.49
35655;BME280;21773;50.010;19.972;2023-04-05T06:04:24;99233.59;;;7.00;36.44
35655;BME280;21773;50.010;19.972;2023-04-05T06:07:27;99232.41;;;7.02;35.99
35655;BME280;21773;50.010;19.972;2023-04-05T06:10:30;99232.47;;;7.09;36.18
35655;BME280;21773;50.010;19.972;2023-04-05T06:13:35;99231.13;;;7.19;36.14
35655;BME280;21773;50.010;19.972;2023-04-05T06:16:38;99234.53;;;7.28;35.91
35655;BME280;21773;50.010;19.972;2023-04-05T06:19:42;99237.69;;;7.38;35.51
35655;BME280;21773;50.010;19.972;2023-04-05T06:22:45;99238.09;;;7.56;35.45
35655;BME280;21773;50.010;19.972;2023-04-05T06:25:49;99236.72;;;7.67;35.14
35655;BME280;21773;50.010;19.972;2023-04-05T06:28:53;99233.00;;;7.68;35.03
35655;BME280;21773;50.010;19.972;2023-04-05T06:31:57;99233.31;;;7.79;34.36
35655;BME280;21773;50.010;19.972;2023-04-05T06:35:00;99224.75;;;7.97;34.15
35655;BME280;21773;50.010;19.972;2023-04-05T06:38:04;99234.19;;;8.21;33.79
35655;BME280;21773;50.010;19.972;2023-04-05T06:41:08;99233.75;;;8.52;33.68
35655;BME280;21773;50.010;19.972;2023-04-05T06:44:12;99234.09;;;8.83;33.13
35655;BME280;21773;50.010;19.972;2023-04-05T06:47:16;99239.56;;;9.16;32.55
35655;BME280;21773;50.010;19.972;2023-04-05T06:50:20;99231.72;;;9.41;31.99
35655;BME280;21773;50.010;19.972;2023-04-05T06:53:23;99232.97;;;9.58;31.53
35655;BME280;21773;50.010;19.972;2023-04-05T06:56:28;99234.63;;;9.79;30.89
35655;BME280;21773;50.010;19.972;2023-04-05T06:59:33;99233.81;;;9.91;30.57
35655;BME280;21773;50.010;19.972;2023-04-05T07:02:36;99234.00;;;10.16;30.51
35655;BME280;21773;50.010;19.972;2023-04-05T07:05:40;99229.97;;;10.45;29.83
35655;BME280;21773;50.010;19.972;2023-04-05T07:08:43;99225.09;;;10.73;29.64
35655;BME280;21773;50.010;19.972;2023-04-05T07:11:47;99230.75;;;11.03;28.95
35655;BME280;21773;50.010;19.972;2023-04-05T07:14:52;99219.59;;;11.24;28.21
35655;BME280;21773;50.010;19.972;2023-04-05T07:17:55;99224.66;;;11.46;28.18
35655;BME280;21773;50.010;19.972;2023-04-05T07:20:58;99225.78;;;11.63;27.91
35655;BME280;21773;50.010;19.972;2023-04-05T07:24:03;99221.97;;;11.95;27.98
35655;BME280;21773;50.010;19.972;2023-04-05T07:27:07;99226.97;;;12.17;27.71
35655;BME280;21773;50.010;19.972;2023-04-05T07:30:12;99219.47;;;12.37;27.04
35655;BME280;21773;50.010;19.972;2023-04-05T07:33:16;99225.72;;;12.55;26.11
35655;BME280;21773;50.010;19.972;2023-04-05T07:36:19;99224.09;;;12.84;26.29
35655;BME280;21773;50.010;19.972;2023-04-05T07:39:22;99221.00;;;12.99;26.11
35655;BME280;21773;50.010;19.972;2023-04-05T07:42:26;99219.84;;;13.07;23.95
35655;BME280;21773;50.010;19.972;2023-04-05T07:45:32;99223.03;;;13.33;25.25
35655;BME280;21773;50.010;19.972;2023-04-05T07:48:35;99215.91;;;13.62;25.12
35655;BME280;21773;50.010;19.972;2023-04-05T07:51:38;99222.19;;;13.86;24.59
35655;BME280;21773;50.010;19.972;2023-04-05T07:54:43;99218.06;;;13.95;23.53
35655;BME280;21773;50.010;19.972;2023-04-05T07:57:47;99189.06;;;13.72;24.26
35655;BME280;21773;50.010;19.972;2023-04-05T08:00:58;99212.75;;;14.12;23.96
35655;BME280;21773;50.010;19.972;2023-04-05T08:04:01;99212.50;;;14.13;23.72
35655;BME280;21773;50.010;19.972;2023-04-05T08:07:05;99212.41;;;14.20;24.10
35655;BME280;21773;50.010;19.972;2023-04-05T08:10:09;99205.78;;;14.39;22.95
35655;BME280;21773;50.010;19.972;2023-04-05T08:13:13;99165.34;;;14.03;23.05
35655;BME280;21773;50.010;19.972;2023-04-05T08:16:18;99206.19;;;14.71;23.53
35655;BME280;21773;50.010;19.972;2023-04-05T08:19:21;99212.22;;;15.01;22.72
35655;BME280;21773;50.010;19.972;2023-04-05T08:22:27;99204.09;;;15.46;23.04
35655;BME280;21773;50.010;19.972;2023-04-05T08:25:31;99204.84;;;15.13;22.42
35655;BME280;21773;50.010;19.972;2023-04-05T08:32:10;99200.88;;;15.04;22.66
35655;BME280;21773;50.010;19.972;2023-04-05T08:35:13;99202.81;;;15.66;22.05
35655;BME280;21773;50.010;19.972;2023-04-05T08:38:17;99190.84;;;16.38;21.61
35655;BME280;21773;50.010;19.972;2023-04-05T08:41:22;99194.84;;;16.96;21.15
35655;BME280;21773;50.010;19.972;2023-04-05T08:44:29;99193.16;;;16.90;20.85
35655;BME280;21773;50.010;19.972;2023-04-05T08:47:36;99193.75;;;16.54;20.97
35655;BME280;21773;50.010;19.972;2023-04-05T08:50:39;99190.53;;;15.96;21.11
35655;BME280;21773;50.010;19.972;2023-04-05T08:53:43;99192.72;;;15.49;21.26
35655;BME280;21773;50.010;19.972;2023-04-05T08:56:47;99194.63;;;15.04;21.76
35655;BME280;21773;50.010;19.972;2023-04-05T08:59:51;99185.47;;;14.53;22.52
35655;BME280;21773;50.010;19.972;2023-04-05T09:02:57;99189.75;;;14.03;23.18
35655;BME280;21773;50.010;19.972;2023-04-05T09:06:06;99187.41;;;13.83;23.85
35655;BME280;21773;50.010;19.972;2023-04-05T09:09:13;99186.47;;;13.66;23.73
35655;BME280;21773;50.010;19.972;2023-04-05T09:12:19;99190.47;;;14.21;24.00
35655;BME280;21773;50.010;19.972;2023-04-05T09:15:23;99188.44;;;14.28;23.24
35655;BME280;21773;50.010;19.972;2023-04-05T09:18:29;99191.50;;;14.32;22.73
35655;BME280;21773;50.010;19.972;2023-04-05T09:21:56;99191.19;;;14.17;23.72
35655;BME280;21773;50.010;19.972;2023-04-05T09:25:00;99187.06;;;13.91;24.41
35655;BME280;21773;50.010;19.972;2023-04-05T09:28:03;99188.66;;;13.45;24.58
35655;BME280;21773;50.010;19.972;2023-04-05T09:31:07;99191.13;;;13.06;25.31
35655;BME280;21773;50.010;19.972;2023-04-05T09:34:19;99199.38;;;12.81;25.74
35655;BME280;21773;50.010;19.972;2023-04-05T09:37:22;99194.47;;;12.59;25.59
35655;BME280;21773;50.010;19.972;2023-04-05T09:40:40;99192.00;;;12.40;25.74
35655;BME280;21773;50.010;19.972;2023-04-05T09:43:44;99187.03;;;12.19;25.73
35655;BME280;21773;50.010;19.972;2023-04-05T09:46:47;99189.66;;;12.07;25.89
35655;BME280;21773;50.010;19.972;2023-04-05T09:49:52;99185.50;;;12.04;25.99
35655;BME280;21773;50.010;19.972;2023-04-05T09:53:08;99186.56;;;12.03;26.09
35655;BME280;21773;50.010;19.972;2023-04-05T09:56:12;99194.41;;;12.30;26.03
35655;BME280;21773;50.010;19.972;2023-04-05T09:59:15;99186.78;;;12.75;25.12
35655;BME280;21773;50.010;19.972;2023-04-05T10:02:20;99173.47;;;13.44;24.61
35655;BME280;21773;50.010;19.972;2023-04-05T10:05:26;99164.06;;;13.94;23.50
35655;BME280;21773;50.010;19.972;2023-04-05T10:08:30;99171.94;;;14.30;22.34
35655;BME280;21773;50.010;19.972;2023-04-05T10:11:33;99162.84;;;14.48;22.63
35655;BME280;21773;50.010;19.972;2023-04-05T10:14:38;99169.91;;;14.60;23.36
35655;BME280;21773;50.010;19.972;2023-04-05T10:17:46;99165.88;;;14.63;23.34
35655;BME280;21773;50.010;19.972;2023-04-05T10:20:53;99171.16;;;14.69;22.69
35655;BME280;21773;50.010;19.972;2023-04-05T10:24:06;99172.13;;;14.63;23.00
35655;BME280;21773;50.010;19.972;2023-04-05T10:27:17;99167.03;;;14.67;22.90
35655;BME280;21773;50.010;19.972;2023-04-05T10:30:24;99166.50;;;14.82;22.88
35655;BME280;21773;50.010;19.972;2023-04-05T10:33:38;99155.22;;;14.73;21.76
35655;BME280;21773;50.010;19.972;2023-04-05T10:36:49;99161.81;;;15.22;22.95
35655;BME280;21773;50.010;19.972;2023-04-05T10:39:55;99150.88;;;15.17;21.32
35655;BME280;21773;50.010;19.972;2023-04-05T10:43:03;99155.47;;;15.00;22.48
35655;BME280;21773;50.010;19.972;2023-04-05T10:46:10;99147.84;;;14.85;22.55
35655;BME280;21773;50.010;19.972;2023-04-05T10:49:20;99153.50;;;14.55;22.90
35655;BME280;21773;50.010;19.972;2023-04-05T10:52:26;99148.72;;;14.22;23.25
35655;BME280;21773;50.010;19.972;2023-04-05T10:55:30;99149.56;;;14.00;23.38
35655;BME280;21773;50.010;19.972;2023-04-05T10:58:35;99148.31;;;13.67;23.71
35655;BME280;21773;50.010;19.972;2023-04-05T11:01:41;99148.38;;;13.49;24.68
35655;BME280;21773;50.010;19.972;2023-04-05T11:04:45;99150.63;;;13.40;24.62
35655;BME280;21773;50.010;19.972;2023-04-05T11:07:50;99153.91;;;13.31;25.00
35655;BME280;21773;50.010;19.972;2023-04-05T11:10:58;99128.03;;;13.05;25.06
35655;BME280;21773;50.010;19.972;2023-04-05T11:14:16;99156.41;;;13.02;25.30
35655;BME280;21773;50.010;19.972;2023-04-05T11:17:24;99148.63;;;12.94;25.95
35655;BME280;21773;50.010;19.972;2023-04-05T11:20:39;99154.94;;;12.88;26.40
35655;BME280;21773;50.010;19.972;2023-04-05T11:27:11;99154.16;;;12.70;26.72
35655;BME280;21773;50.010;19.972;2023-04-05T11:30:46;99158.78;;;12.51;26.24
35655;BME280;21773;50.010;19.972;2023-04-05T11:33:53;99146.25;;;12.38;25.94
35655;BME280;21773;50.010;19.972;2023-04-05T11:36:59;99153.38;;;12.51;26.17
35655;BME280;21773;50.010;19.972;2023-04-05T11:40:24;99154.09;;;12.58;26.48
35655;BME280;21773;50.010;19.972;2023-04-05T11:43:29;99156.19;;;12.74;25.78
35655;BME280;21773;50.010;19.972;2023-04-05T11:46:35;99147.19;;;13.22;25.01
35655;BME280;21773;50.010;19.972;2023-04-05T11:49:39;99140.34;;;14.24;24.79
35655;BME280;21773;50.010;19.972;2023-04-05T11:52:43;99134.97;;;15.26;22.61
35655;BME280;21773;50.010;19.972;2023-04-05T11:55:48;99141.41;;;16.25;20.92
35655;BME280;21773;50.010;19.972;2023-04-05T11:58:57;99137.25;;;17.09;20.49
35655;BME280;21773;50.010;19.972;2023-04-05T12:02:01;99128.25;;;17.41;20.50
35655;BME280;21773;50.010;19.972;2023-04-05T12:05:05;99126.25;;;18.00;19.99
35655;BME280;21773;50.010;19.972;2023-04-05T12:08:08;99128.00;;;18.21;19.23
35655;BME280;21773;50.010;19.972;2023-04-05T12:11:12;99129.56;;;18.07;19.91
35655;BME280;21773;50.010;19.972;2023-04-05T12:14:16;99136.13;;;17.64;19.82
35655;BME280;21773;50.010;19.972;2023-04-05T12:17:36;99127.91;;;17.00;19.91
35655;BME280;21773;50.010;19.972;2023-04-05T12:20:40;99133.06;;;16.53;19.72
35655;BME280;21773;50.010;19.972;2023-04-05T12:23:43;99125.66;;;16.05;21.37
35655;BME280;21773;50.010;19.972;2023-04-05T12:26:47;99133.28;;;15.70;22.40
35655;BME280;21773;50.010;19.972;2023-04-05T12:30:06;99135.50;;;15.39;22.89
35655;BME280;21773;50.010;19.972;2023-04-05T12:33:09;99125.84;;;15.15;22.95
35655;BME280;21773;50.010;19.972;2023-04-05T12:36:13;99129.34;;;15.44;22.67
35655;BME280;21773;50.010;19.972;2023-04-05T12:39:17;99123.72;;;15.50;22.94
35655;BME280;21773;50.010;19.972;2023-04-05T12:42:21;99117.78;;;15.87;22.92
35655;BME280;21773;50.010;19.972;2023-04-05T12:45:26;99124.88;;;15.88;22.50
35655;BME280;21773;50.010;19.972;2023-04-05T12:48:30;99119.75;;;16.13;22.56
35655;BME280;21773;50.010;19.972;2023-04-05T12:51:34;99116.09;;;16.24;22.01
35655;BME280;21773;50.010;19.972;2023-04-05T12:54:37;99120.44;;;16.03;21.92
35655;BME280;21773;50.010;19.972;2023-04-05T12:57:41;99122.56;;;15.80;22.59
35655;BME280;21773;50.010;19.972;2023-04-05T13:00:45;99117.09;;;15.58;22.49
35655;BME280;21773;50.010;19.972;2023-04-05T13:03:49;99115.81;;;15.32;22.60
35655;BME280;21773;50.010;19.972;2023-04-05T13:07:05;99120.66;;;15.13;22.35
35655;BME280;21773;50.010;19.972;2023-04-05T13:10:09;99115.06;;;15.03;22.46
35655;BME280;21773;50.010;19.972;2023-04-05T13:13:13;99121.88;;;14.89;22.68
35655;BME280;21773;50.010;19.972;2023-04-05T13:16:18;99110.53;;;14.64;23.12
35655;BME280;21773;50.010;19.972;2023-04-05T13:19:22;99121.13;;;14.37;22.40
35655;BME280;21773;50.010;19.972;2023-04-05T13:22:25;99107.03;;;14.12;22.50
35655;BME280;21773;50.010;19.972;2023-04-05T13:25:29;99116.44;;;14.21;22.74
35655;BME280;21773;50.010;19.972;2023-04-05T13:28:32;99106.03;;;14.18;22.33
35655;BME280;21773;50.010;19.972;2023-04-05T13:31:37;99124.31;;;14.22;22.94
35655;BME280;21773;50.010;19.972;2023-04-05T13:34:42;99113.25;;;14.12;22.97
35655;BME280;21773;50.010;19.972;2023-04-05T13:37:45;99116.81;;;14.01;23.32
35655;BME280;21773;50.010;19.972;2023-04-05T13:40:48;99122.72;;;13.86;23.68
35655;BME280;21773;50.010;19.972;2023-04-05T13:43:51;99116.34;;;13.69;23.81
35655;BME280;21773;50.010;19.972;2023-04-05T13:46:56;99118.25;;;13.57;23.76
35655;BME280;21773;50.010;19.972;2023-04-05T13:49:59;99119.69;;;13.48;24.02
35655;BME280;21773;50.010;19.972;2023-04-05T13:53:03;99116.47;;;13.39;23.70
35655;BME280;21773;50.010;19.972;2023-04-05T13:56:07;99121.50;;;13.24;23.68
35655;BME280;21773;50.010;19.972;2023-04-05T13:59:10;99121.09;;;12.97;23.91
35655;BME280;21773;50.010;19.972;2023-04-05T14:02:19;99104.19;;;12.72;24.68
35655;BME280;21773;50.010;19.972;2023-04-05T14:05:26;99120.00;;;12.87;24.67
35655;BME280;21773;50.010;19.972;2023-04-05T14:08:30;99112.69;;;12.87;24.28
35655;BME280;21773;50.010;19.972;2023-04-05T14:11:33;99107.03;;;13.19;23.94
35655;BME280;21773;50.010;19.972;2023-04-05T14:14:37;99116.97;;;13.71;24.19
35655;BME280;21773;50.010;19.972;2023-04-05T14:17:42;99114.00;;;13.96;23.25
35655;BME280;21773;50.010;19.972;2023-04-05T14:20:45;99119.38;;;14.08;22.97
35655;BME280;21773;50.010;19.972;2023-04-05T14:23:49;99105.03;;;14.07;22.48
35655;BME280;21773;50.010;19.972;2023-04-05T14:26:55;99106.44;;;13.98;22.38
35655;BME280;21773;50.010;19.972;2023-04-05T14:29:59;99111.78;;;13.81;22.57
35655;BME280;21773;50.010;19.972;2023-04-05T14:33:04;99110.00;;;13.75;23.22
35655;BME280;21773;50.010;19.972;2023-04-05T14:36:08;99093.50;;;13.54;23.75
35655;BME280;21773;50.010;19.972;2023-04-05T14:39:11;99113.19;;;13.49;24.28
35655;BME280;21773;50.010;19.972;2023-04-05T14:42:14;99103.06;;;13.33;24.83
35655;BME280;21773;50.010;19.972;2023-04-05T14:45:18;99114.63;;;13.10;24.36
35655;BME280;21773;50.010;19.972;2023-04-05T14:48:23;99114.88;;;13.09;25.00
35655;BME280;21773;50.010;19.972;2023-04-05T14:51:26;99105.84;;;13.15;24.19
35655;BME280;21773;50.010;19.972;2023-04-05T14:54:29;99107.97;;;13.13;24.39
35655;BME280;21773;50.010;19.972;2023-04-05T14:57:33;99108.25;;;12.93;24.50
35655;BME280;21773;50.010;19.972;2023-04-05T15:00:36;99111.44;;;12.90;24.56
35655;BME280;21773;50.010;19.972;2023-04-05T15:03:41;99108.66;;;13.20;25.43
35655;BME280;21773;50.010;19.972;2023-04-05T15:06:44;99101.78;;;13.47;24.64
35655;BME280;21773;50.010;19.972;2023-04-05T15:09:48;99107.78;;;13.72;24.28
35655;BME280;21773;50.010;19.972;2023-04-05T15:12:52;99107.88;;;13.66;22.59
35655;BME280;21773;50.010;19.972;2023-04-05T15:15:55;99103.53;;;13.53;23.18
35655;BME280;21773;50.010;19.972;2023-04-05T15:19:00;99109.75;;;13.54;23.34
35655;BME280;21773;50.010;19.972;2023-04-05T15:22:03;99113.09;;;13.67;23.42
35655;BME280;21773;50.010;19.972;2023-04-05T15:25:08;99105.19;;;13.77;22.84
35655;BME280;21773;50.010;19.972;2023-04-05T15:28:12;99106.22;;;13.88;22.78
35655;BME280;21773;50.010;19.972;2023-04-05T15:31:15;99104.94;;;13.91;22.43
35655;BME280;21773;50.010;19.972;2023-04-05T15:34:20;99103.50;;;13.88;21.95
35655;BME280;21773;50.010;19.972;2023-04-05T15:37:24;99111.44;;;13.78;22.20
35655;BME280;21773;50.010;19.972;2023-04-05T15:40:27;99102.69;;;13.64;22.47
35655;BME280;21773;50.010;19.972;2023-04-05T15:43:31;99114.84;;;13.62;22.85
35655;BME280;21773;50.010;19.972;2023-04-05T15:46:34;99111.28;;;13.50;23.09
35655;BME280;21773;50.010;19.972;2023-04-05T15:49:40;99113.75;;;13.39;23.31
35655;BME280;21773;50.010;19.972;2023-04-05T15:52:44;99119.41;;;13.26;23.83
35655;BME280;21773;50.010;19.972;2023-04-05T15:55:48;99117.28;;;13.17;23.75
35655;BME280;21773;50.010;19.972;2023-04-05T15:58:51;99118.28;;;13.04;23.60
35655;BME280;21773;50.010;19.972;2023-04-05T16:01:54;99116.59;;;12.91;23.96
35655;BME280;21773;50.010;19.972;2023-04-05T16:04:59;99116.19;;;12.76;23.72
35655;BME280;21773;50.010;19.972;2023-04-05T16:08:02;99126.03;;;12.71;24.07
35655;BME280;21773;50.010;19.972;2023-04-05T16:11:06;99128.16;;;12.69;23.94
35655;BME280;21773;50.010;19.972;2023-04-05T16:14:09;99131.41;;;12.59;24.45
35655;BME280;21773;50.010;19.972;2023-04-05T16:17:12;99126.78;;;12.48;24.49
35655;BME280;21773;50.010;19.972;2023-04-05T16:20:17;99120.25;;;12.37;24.18
35655;BME280;21773;50.010;19.972;2023-04-05T16:23:20;99119.44;;;12.19;23.85
35655;BME280;21773;50.010;19.972;2023-04-05T16:26:24;99121.03;;;12.08;24.45
35655;BME280;21773;50.010;19.972;2023-04-05T16:29:28;99122.47;;;11.92;24.60
35655;BME280;21773;50.010;19.972;2023-04-05T16:32:31;99119.53;;;11.69;24.37
35655;BME280;21773;50.010;19.972;2023-04-05T16:35:36;99097.72;;;11.27;24.87
35655;BME280;21773;50.010;19.972;2023-04-05T16:38:39;99123.06;;;11.26;24.87
35655;BME280;21773;50.010;19.972;2023-04-05T16:41:45;99117.59;;;11.08;25.29
35655;BME280;21773;50.010;19.972;2023-04-05T16:44:48;99071.06;;;10.57;25.12
35655;BME280;21773;50.010;19.972;2023-04-05T16:47:52;99127.19;;;10.73;25.32
35655;BME280;21773;50.010;19.972;2023-04-05T16:50:58;99124.13;;;10.63;25.54
35655;BME280;21773;50.010;19.972;2023-04-05T16:54:08;99134.56;;;10.53;25.69
35655;BME280;21773;50.010;19.972;2023-04-05T16:57:26;99132.13;;;10.45;25.94
35655;BME280;21773;50.010;19.972;2023-04-05T17:00:29;99130.47;;;10.37;25.66